createdAt,value
2017-10-05T00:01:48.109Z,3.30
2017-10-05T00:04:16.702Z,3.77
2017-10-05T00:06:44.952Z,3.63
2017-10-05T00:09:13.193Z,3.30
2017-10-05T00:11:41.456Z,4.87
2017-10-05T00:14:09.702Z,3.43
2017-10-05T00:16:37.945Z,3.20
2017-10-05T00:19:06.209Z,4.30
2017-10-05T00:21:34.458Z,3.60
2017-10-05T00:24:03.464Z,4.00
2017-10-05T00:26:32.270Z,3.20
2017-10-05T00:29:00.506Z,5.33
2017-10-05T00:31:28.763Z,3.53
2017-10-05T00:33:57.039Z,3.37
2017-10-05T00:36:25.291Z,2.63
2017-10-05T00:38:53.538Z,3.27
2017-10-05T00:41:21.815Z,3.60
2017-10-05T00:43:50.058Z,3.40
2017-10-05T00:46:18.307Z,3.70
2017-10-05T00:48:46.703Z,4.00
2017-10-05T00:51:14.955Z,3.97
2017-10-05T00:53:43.206Z,3.07
2017-10-05T00:56:11.702Z,3.30
2017-10-05T00:58:39.946Z,3.53
2017-10-05T01:01:08.186Z,2.97
2017-10-05T01:03:36.450Z,3.40
2017-10-05T01:06:04.696Z,3.30
2017-10-05T01:08:32.933Z,3.50
2017-10-05T01:11:01.583Z,3.10
2017-10-05T01:13:29.827Z,2.90
2017-10-05T01:15:58.079Z,3.10
2017-10-05T01:18:26.350Z,2.70
2017-10-05T01:20:55.359Z,2.43
2017-10-05T01:23:24.375Z,3.60
2017-10-05T01:25:52.638Z,3.03
2017-10-05T01:28:20.882Z,3.23
2017-10-05T01:30:49.134Z,2.97
2017-10-05T01:33:17.706Z,3.30
2017-10-05T01:35:45.950Z,3.30
2017-10-05T01:38:14.198Z,2.80
2017-10-05T01:40:42.458Z,3.47
2017-10-05T01:43:10.701Z,2.97
2017-10-05T01:45:38.947Z,3.07
2017-10-05T01:48:07.218Z,3.03
2017-10-05T01:50:35.470Z,2.60
2017-10-05T01:53:03.726Z,2.63
2017-10-05T01:55:32.046Z,2.90
2017-10-05T01:58:01.350Z,3.83
2017-10-05T02:00:30.430Z,3.03
2017-10-05T02:02:58.690Z,2.50
2017-10-05T02:05:26.942Z,3.60
2017-10-05T02:07:55.190Z,3.63
2017-10-05T02:10:23.458Z,2.80
2017-10-05T02:12:52.466Z,3.00
2017-10-05T02:15:20.709Z,2.53
2017-10-05T02:17:50.270Z,3.40
2017-10-05T02:20:18.517Z,2.63
2017-10-05T02:22:46.766Z,2.83
2017-10-05T02:25:15.079Z,2.90
2017-10-05T02:27:43.332Z,2.63
2017-10-05T02:30:11.574Z,3.03
2017-10-05T02:32:39.848Z,2.70
2017-10-05T02:35:08.098Z,3.23
2017-10-05T02:37:36.350Z,3.30
2017-10-05T02:40:04.882Z,2.67
2017-10-05T02:42:33.122Z,4.03
2017-10-05T02:45:01.374Z,2.70
2017-10-05T02:47:30.406Z,2.70
2017-10-05T02:49:58.642Z,3.00
2017-10-05T02:52:26.885Z,3.30
2017-10-05T02:54:55.162Z,3.13
2017-10-05T02:57:23.642Z,3.10
2017-10-05T02:59:52.050Z,3.10
2017-10-05T03:02:21.398Z,2.77
2017-10-05T03:04:49.638Z,3.10
2017-10-05T03:07:17.884Z,3.40
2017-10-05T03:09:46.145Z,3.00
2017-10-05T03:12:14.388Z,3.17
2017-10-05T03:14:42.638Z,2.70
2017-10-05T03:17:11.670Z,3.00
2017-10-05T03:19:39.915Z,2.70
2017-10-05T03:22:08.926Z,3.10
2017-10-05T03:24:37.254Z,3.27
2017-10-05T03:27:05.499Z,3.17
2017-10-05T03:29:33.742Z,3.87
2017-10-05T03:32:02.010Z,3.10
2017-10-05T03:34:30.254Z,3.20
2017-10-05T03:36:58.494Z,3.23
2017-10-05T03:39:26.762Z,2.90
2017-10-05T03:41:55.010Z,3.47
2017-10-05T03:44:23.355Z,3.50
2017-10-05T03:46:51.666Z,2.80
2017-10-05T03:49:19.918Z,3.23
2017-10-05T03:51:48.164Z,3.77
2017-10-05T03:54:16.459Z,3.80
2017-10-05T03:56:44.707Z,2.87
2017-10-05T03:59:12.945Z,2.70
2017-10-05T04:01:41.561Z,2.77
2017-10-05T04:04:09.814Z,3.57
2017-10-05T04:06:38.061Z,2.83
2017-10-05T04:09:06.386Z,3.57
2017-10-05T04:11:35.445Z,3.37
2017-10-05T04:14:03.683Z,2.10
2017-10-05T04:16:31.943Z,2.73
2017-10-05T04:19:00.190Z,3.33
2017-10-05T04:21:29.202Z,3.03
2017-10-05T04:23:57.462Z,2.50
2017-10-05T04:26:25.721Z,2.90
2017-10-05T04:28:54.007Z,3.20
2017-10-05T04:31:23.480Z,2.70
2017-10-05T04:33:51.702Z,3.00
2017-10-05T04:36:20.722Z,3.03
2017-10-05T04:38:49.031Z,3.70
2017-10-05T04:41:17.267Z,2.40
2017-10-05T04:43:45.514Z,3.37
2017-10-05T04:46:14.546Z,3.80
2017-10-05T04:48:42.790Z,2.70
2017-10-05T04:51:11.043Z,2.60
2017-10-05T04:53:39.582Z,2.60
2017-10-05T04:56:07.838Z,2.70
2017-10-05T04:58:36.846Z,2.67
2017-10-05T05:01:05.387Z,2.97
2017-10-05T05:03:33.945Z,3.53
2017-10-05T05:06:02.190Z,3.20
2017-10-05T05:08:30.457Z,2.73
2017-10-05T05:10:58.891Z,3.40
2017-10-05T05:13:27.133Z,2.50
2017-10-05T05:15:55.727Z,3.43
2017-10-05T05:18:23.977Z,2.77
2017-10-05T05:20:52.230Z,2.90
2017-10-05T05:23:20.530Z,3.20
2017-10-05T05:25:48.774Z,3.00
2017-10-05T05:28:17.070Z,2.73
2017-10-05T05:30:45.504Z,2.87
2017-10-05T05:33:13.733Z,3.30
2017-10-05T05:35:41.986Z,2.97
2017-10-05T05:38:10.523Z,2.50
2017-10-05T05:40:38.862Z,2.70
2017-10-05T05:43:07.089Z,3.20
2017-10-05T05:45:35.355Z,3.00
2017-10-05T05:48:03.590Z,2.50
2017-10-05T05:50:32.598Z,3.20
2017-10-05T05:53:00.919Z,2.70
2017-10-05T05:55:29.146Z,2.67
2017-10-05T05:57:57.395Z,2.40
2017-10-05T06:00:25.866Z,2.63
2017-10-05T06:02:54.134Z,2.07
2017-10-05T06:05:22.654Z,2.83
2017-10-05T06:07:51.805Z,2.40
2017-10-05T06:10:20.030Z,2.60
2017-10-05T06:12:48.275Z,2.60
2017-10-05T06:15:16.541Z,2.63
2017-10-05T06:17:44.793Z,2.30
2017-10-05T06:20:13.042Z,3.00
2017-10-05T06:22:41.522Z,2.30
2017-10-05T06:25:09.778Z,2.90
2017-10-05T06:27:38.022Z,3.10
2017-10-05T06:30:06.286Z,2.63
2017-10-05T06:32:34.534Z,2.80
2017-10-05T06:35:05.022Z,2.63
2017-10-05T06:37:33.286Z,2.37
2017-10-05T06:40:01.534Z,2.83
2017-10-05T06:42:29.777Z,2.07
2017-10-05T06:44:59.216Z,2.77
2017-10-05T06:47:27.462Z,2.53
2017-10-05T06:49:55.744Z,2.57
2017-10-05T06:52:24.010Z,2.10
2017-10-05T06:54:52.258Z,3.10
2017-10-05T06:57:20.498Z,3.10
2017-10-05T06:59:48.770Z,2.70
2017-10-05T07:02:17.023Z,2.20
2017-10-05T07:04:45.286Z,2.57
2017-10-05T07:07:14.933Z,2.63
2017-10-05T07:09:43.175Z,2.47
2017-10-05T07:12:12.182Z,2.90
2017-10-05T07:14:40.442Z,2.73
2017-10-05T07:17:08.690Z,2.47
2017-10-05T07:19:36.929Z,2.03
2017-10-05T07:22:05.194Z,2.50
2017-10-05T07:24:33.579Z,2.47
2017-10-05T07:27:01.806Z,3.00
2017-10-05T07:29:30.139Z,2.50
2017-10-05T07:31:58.390Z,2.43
2017-10-05T07:34:26.722Z,2.50
2017-10-05T07:36:55.045Z,2.90
2017-10-05T07:39:23.294Z,2.40
2017-10-05T07:41:51.590Z,2.00
2017-10-05T07:44:21.237Z,2.43
2017-10-05T07:46:49.479Z,2.27
2017-10-05T07:49:18.490Z,2.40
2017-10-05T07:51:47.298Z,2.43
2017-10-05T07:54:15.619Z,2.20
2017-10-05T07:56:43.863Z,2.70
2017-10-05T07:59:12.914Z,2.73
2017-10-05T08:01:41.163Z,1.97
2017-10-05T08:04:09.401Z,2.43
2017-10-05T08:06:37.666Z,2.43
2017-10-05T08:09:06.072Z,2.20
2017-10-05T08:11:34.306Z,2.10
2017-10-05T08:14:02.741Z,1.87
2017-10-05T08:16:30.981Z,2.07
2017-10-05T08:18:59.229Z,2.57
2017-10-05T08:21:27.502Z,2.40
2017-10-05T08:23:56.514Z,1.93
2017-10-05T08:26:24.757Z,2.77
2017-10-05T08:28:53.230Z,2.70
2017-10-05T08:31:21.475Z,1.90
2017-10-05T08:33:49.722Z,2.27
2017-10-05T08:36:18.594Z,2.30
2017-10-05T08:38:47.609Z,2.63
2017-10-05T08:41:15.850Z,2.57
2017-10-05T08:43:44.241Z,2.00
2017-10-05T08:46:12.487Z,2.40
2017-10-05T08:48:40.739Z,2.20
2017-10-05T08:51:09.002Z,1.90
2017-10-05T08:53:37.246Z,1.60
2017-10-05T08:56:06.258Z,2.17
2017-10-05T08:58:34.667Z,2.10
2017-10-05T09:01:02.918Z,1.70
2017-10-05T09:03:31.165Z,2.00
2017-10-05T09:06:00.202Z,1.47
2017-10-05T09:08:28.470Z,2.20
2017-10-05T09:10:56.975Z,1.90
2017-10-05T09:13:25.243Z,1.93
2017-10-05T09:15:53.489Z,2.00
2017-10-05T09:18:21.741Z,2.97
2017-10-05T09:20:50.220Z,2.37
2017-10-05T09:23:18.470Z,1.80
2017-10-05T09:25:46.754Z,1.77
2017-10-05T09:28:15.014Z,1.70
2017-10-05T09:30:43.254Z,2.20
2017-10-05T09:33:11.497Z,2.03
2017-10-05T09:35:39.766Z,2.20
2017-10-05T09:38:13.123Z,1.63
2017-10-05T09:40:41.541Z,2.47
2017-10-05T09:43:09.790Z,1.90
2017-10-05T09:45:38.039Z,1.40
2017-10-05T09:48:06.302Z,1.97
2017-10-05T09:50:35.378Z,1.40
2017-10-05T09:53:03.625Z,2.00
2017-10-05T09:55:31.895Z,1.80
2017-10-05T09:58:00.150Z,1.30
2017-10-05T10:00:28.406Z,1.70
2017-10-05T10:02:57.598Z,2.63
2017-10-05T10:05:25.841Z,1.90
2017-10-05T10:07:54.082Z,1.70
2017-10-05T10:10:22.343Z,3.13
2017-10-05T10:12:51.018Z,1.47
2017-10-05T10:15:20.024Z,1.90
2017-10-05T10:17:48.290Z,1.53
2017-10-05T10:20:16.530Z,1.67
2017-10-05T10:22:44.775Z,1.80
2017-10-05T10:25:13.689Z,1.50
2017-10-05T10:27:41.909Z,1.90
2017-10-05T10:30:10.925Z,2.10
2017-10-05T10:32:39.205Z,1.50
2017-10-05T10:35:07.447Z,2.40
2017-10-05T10:37:36.473Z,1.90
2017-10-05T10:40:04.767Z,1.43
2017-10-05T10:42:33.000Z,2.20
2017-10-05T10:45:01.243Z,2.00
2017-10-05T10:47:29.842Z,1.93
2017-10-05T10:49:58.099Z,1.70
2017-10-05T10:52:26.335Z,1.67
2017-10-05T10:54:54.598Z,2.00
2017-10-05T10:57:22.841Z,1.87
2017-10-05T10:59:51.122Z,1.97
2017-10-05T11:02:19.393Z,1.90
2017-10-05T11:04:47.630Z,1.63
2017-10-05T11:07:15.878Z,1.80
2017-10-05T11:09:44.436Z,2.40
2017-10-05T11:12:12.892Z,1.60
2017-10-05T11:14:41.258Z,1.80
2017-10-05T11:17:09.526Z,1.87
2017-10-05T11:19:37.794Z,1.57
2017-10-05T11:22:06.038Z,1.77
2017-10-05T11:24:34.378Z,1.90
2017-10-05T11:27:02.599Z,1.47
2017-10-05T11:29:30.836Z,2.10
2017-10-05T11:31:59.498Z,1.70
2017-10-05T11:34:27.743Z,1.60
2017-10-05T11:36:56.093Z,2.07
2017-10-05T11:39:25.110Z,1.80
2017-10-05T11:41:53.354Z,1.80
2017-10-05T11:44:22.546Z,2.40
2017-10-05T11:46:50.842Z,2.20
2017-10-05T11:49:19.089Z,2.13
2017-10-05T11:51:47.330Z,1.97
2017-10-05T11:54:15.830Z,1.50
2017-10-05T11:56:44.074Z,2.10
2017-10-05T11:59:12.635Z,1.80
2017-10-05T12:01:40.939Z,1.47
2017-10-05T12:04:10.956Z,2.33
2017-10-05T12:06:45.810Z,1.60
2017-10-05T12:09:14.494Z,1.90
2017-10-05T12:11:42.897Z,2.13
2017-10-05T12:14:11.466Z,1.80
2017-10-05T12:16:39.722Z,2.23
2017-10-05T12:19:08.141Z,2.17
2017-10-05T12:21:36.723Z,2.70
2017-10-05T12:24:04.947Z,2.07
2017-10-05T12:26:35.130Z,1.97
2017-10-05T12:29:03.415Z,1.10
2017-10-05T12:31:31.642Z,1.60
2017-10-05T12:33:59.962Z,2.80
2017-10-05T12:36:28.463Z,1.60
2017-10-05T12:38:56.713Z,2.23
2017-10-05T12:41:24.955Z,2.00
2017-10-05T12:43:53.238Z,2.20
2017-10-05T12:46:21.477Z,2.17
2017-10-05T12:48:50.490Z,2.60
2017-10-05T12:51:18.890Z,1.90
2017-10-05T12:53:47.308Z,2.20
2017-10-05T12:56:15.579Z,2.27
2017-10-05T12:58:43.924Z,2.50
2017-10-05T13:01:12.180Z,1.67
2017-10-05T13:03:41.251Z,1.70
2017-10-05T13:06:09.510Z,2.70
2017-10-05T13:08:37.763Z,2.20
2017-10-05T13:11:06.022Z,2.43
2017-10-05T13:13:34.310Z,2.60
2017-10-05T13:16:02.766Z,2.57
2017-10-05T13:18:31.286Z,2.30
2017-10-05T13:20:59.702Z,1.87
2017-10-05T13:23:27.951Z,2.70
2017-10-05T13:25:56.206Z,2.80
2017-10-05T13:28:24.641Z,2.30
2017-10-05T13:30:53.664Z,2.23
2017-10-05T13:33:21.983Z,2.37
2017-10-05T13:35:50.266Z,2.23
2017-10-05T13:38:18.512Z,2.73
2017-10-05T13:40:46.762Z,1.83
2017-10-05T13:43:15.114Z,2.20
2017-10-05T13:45:43.360Z,1.77
2017-10-05T13:48:11.607Z,2.40
2017-10-05T13:50:40.042Z,2.20
2017-10-05T13:53:09.050Z,1.67
2017-10-05T13:55:39.238Z,2.13
2017-10-05T13:58:10.718Z,2.30
2017-10-05T14:00:40.914Z,1.77
2017-10-05T14:03:09.284Z,2.00
2017-10-05T14:05:37.610Z,2.53
2017-10-05T14:08:05.867Z,1.67
2017-10-05T14:10:34.119Z,1.83
2017-10-05T14:13:02.395Z,1.80
2017-10-05T14:15:35.819Z,1.70
2017-10-05T14:18:05.354Z,1.70
2017-10-05T14:20:33.582Z,1.77
2017-10-05T14:23:01.873Z,1.70
2017-10-05T14:25:31.470Z,1.63
2017-10-05T14:27:59.849Z,1.70
2017-10-05T14:30:28.228Z,1.47
2017-10-05T14:32:56.634Z,2.73
2017-10-05T14:35:25.662Z,1.40
2017-10-05T14:37:53.974Z,1.83
2017-10-05T14:40:22.730Z,1.53
2017-10-05T14:42:51.029Z,1.23
2017-10-05T14:45:19.424Z,1.40
2017-10-05T14:47:48.179Z,1.30
2017-10-05T14:50:17.603Z,1.37
2017-10-05T14:52:47.157Z,1.40
2017-10-05T14:55:16.196Z,1.47
2017-10-05T14:57:44.444Z,2.37
2017-10-05T15:00:12.962Z,1.20
2017-10-05T15:02:41.222Z,1.30
2017-10-05T15:05:09.479Z,0.97
2017-10-05T15:07:37.721Z,1.30
2017-10-05T15:10:08.526Z,1.63
2017-10-05T15:12:36.909Z,1.40
2017-10-05T15:15:06.615Z,1.10
2017-10-05T15:17:34.857Z,1.60
2017-10-05T15:20:03.191Z,1.30
2017-10-05T15:22:31.658Z,1.20
2017-10-05T15:25:00.303Z,1.40
2017-10-05T15:27:30.778Z,1.40
2017-10-05T15:30:01.724Z,1.10
2017-10-05T15:32:32.681Z,1.40
2017-10-05T15:35:03.415Z,1.10
2017-10-05T15:37:34.218Z,1.20
2017-10-05T15:40:03.942Z,1.63
2017-10-05T15:42:33.390Z,0.87
2017-10-05T15:45:03.191Z,1.73
2017-10-05T15:47:33.259Z,1.23
2017-10-05T15:50:01.575Z,1.37
2017-10-05T15:52:29.942Z,1.60
2017-10-05T15:54:58.978Z,1.50
2017-10-05T15:57:27.411Z,1.47
2017-10-05T16:00:00.623Z,1.10
2017-10-05T16:02:29.640Z,1.10
2017-10-05T16:04:57.963Z,1.10
2017-10-05T16:07:26.439Z,1.73
2017-10-05T16:09:55.642Z,1.40
2017-10-05T16:12:24.942Z,1.43
2017-10-05T16:14:55.210Z,1.70
2017-10-05T16:17:23.554Z,2.00
2017-10-05T16:19:51.939Z,1.80
2017-10-05T16:22:20.650Z,1.33
2017-10-05T16:24:51.279Z,1.67
2017-10-05T16:27:21.091Z,1.57
2017-10-05T16:29:49.532Z,1.40
2017-10-05T16:32:19.764Z,1.60
2017-10-05T16:34:49.618Z,1.90
2017-10-05T16:37:20.126Z,2.27
2017-10-05T16:39:50.385Z,1.50
2017-10-05T16:42:20.874Z,2.47
2017-10-05T16:44:50.150Z,1.90
2017-10-05T16:47:18.534Z,1.20
2017-10-05T16:49:48.003Z,2.33
2017-10-05T16:52:17.497Z,2.13
2017-10-05T16:54:46.770Z,2.00
2017-10-05T16:57:16.083Z,1.50
2017-10-05T16:59:47.218Z,1.40
2017-10-05T17:02:16.238Z,1.53
2017-10-05T17:04:44.590Z,1.60
2017-10-05T17:07:13.597Z,1.80
2017-10-05T17:09:44.830Z,1.83
2017-10-05T17:12:13.170Z,2.33
2017-10-05T17:14:41.460Z,2.37
2017-10-05T17:17:09.828Z,2.20
2017-10-05T17:19:38.250Z,1.97
2017-10-05T17:22:07.510Z,2.70
2017-10-05T17:24:35.914Z,2.33
2017-10-05T17:27:04.658Z,2.30
2017-10-05T17:29:32.962Z,2.40
2017-10-05T17:32:01.435Z,2.27
2017-10-05T17:34:30.839Z,2.70
2017-10-05T17:36:59.090Z,2.30
2017-10-05T17:39:29.589Z,2.20
2017-10-05T17:41:59.966Z,2.40
2017-10-05T17:44:28.250Z,2.40
2017-10-05T17:46:58.683Z,2.60
2017-10-05T17:49:27.087Z,2.13
2017-10-05T17:51:56.560Z,2.70
2017-10-05T17:54:24.792Z,2.20
2017-10-05T17:56:53.874Z,2.40
2017-10-05T17:59:23.957Z,2.20
2017-10-05T18:01:52.334Z,2.00
2017-10-05T18:04:21.671Z,3.30
2017-10-05T18:06:51.858Z,2.67
2017-10-05T18:09:23.355Z,1.87
2017-10-05T18:11:53.574Z,2.30
2017-10-05T18:14:22.577Z,2.03
2017-10-05T18:16:51.305Z,1.97
2017-10-05T18:19:20.534Z,2.17
2017-10-05T18:21:50.049Z,1.87
2017-10-05T18:24:19.840Z,2.00
2017-10-05T18:26:50.450Z,1.67
2017-10-05T18:29:19.885Z,2.50
2017-10-05T18:31:50.713Z,2.00
2017-10-05T18:34:21.398Z,2.47
2017-10-05T18:36:50.736Z,2.20
2017-10-05T18:39:20.144Z,2.03
2017-10-05T18:41:48.529Z,1.80
2017-10-05T18:44:16.970Z,1.90
2017-10-05T18:46:45.757Z,1.60
2017-10-05T18:49:16.165Z,1.97
2017-10-05T18:51:45.317Z,2.40
2017-10-05T18:54:13.556Z,1.80
2017-10-05T18:56:41.870Z,2.30
2017-10-05T18:59:10.358Z,2.00
2017-10-05T19:01:38.712Z,2.57
2017-10-05T19:04:07.209Z,2.27
2017-10-05T19:06:36.663Z,2.70
2017-10-05T19:09:06.019Z,2.37
2017-10-05T19:11:34.438Z,2.70
2017-10-05T19:14:02.698Z,2.33
2017-10-05T19:16:35.073Z,2.37
2017-10-05T19:19:03.550Z,2.07
2017-10-05T19:21:32.751Z,2.40
2017-10-05T19:24:01.434Z,2.90
2017-10-05T19:26:29.862Z,1.80
2017-10-05T19:28:58.178Z,1.87
2017-10-05T19:31:30.566Z,2.00
2017-10-05T19:33:59.894Z,2.07
2017-10-05T19:36:30.083Z,3.30
2017-10-05T19:38:58.458Z,3.03
2017-10-05T19:41:26.910Z,2.33
2017-10-05T19:44:00.215Z,2.20
2017-10-05T19:46:28.575Z,2.47
2017-10-05T19:48:59.253Z,1.83
2017-10-05T19:51:27.554Z,2.10
2017-10-05T19:53:57.702Z,1.73
2017-10-05T19:56:26.031Z,1.97
2017-10-05T19:58:54.395Z,2.03
2017-10-05T20:01:22.830Z,2.60
2017-10-05T20:03:51.210Z,3.03
2017-10-05T20:06:19.466Z,2.13
2017-10-05T20:08:47.950Z,2.73
2017-10-05T20:11:17.015Z,2.63
2017-10-05T20:13:47.633Z,2.23
2017-10-05T20:16:16.694Z,2.60
2017-10-05T20:18:45.003Z,3.10
2017-10-05T20:21:17.044Z,3.20
2017-10-05T20:23:50.850Z,2.53
2017-10-05T20:29:32.721Z,3.03
2017-10-05T20:32:16.664Z,2.53
2017-10-05T20:34:45.126Z,2.83
2017-10-05T20:37:13.499Z,2.53
2017-10-05T20:39:41.899Z,3.13
2017-10-05T20:42:10.162Z,3.17
2017-10-05T20:44:38.647Z,2.30
2017-10-05T20:47:06.917Z,2.47
2017-10-05T20:49:35.175Z,9.67
2017-10-05T20:52:03.475Z,3.50
2017-10-05T20:54:31.751Z,2.70
2017-10-05T20:57:00.246Z,3.50
2017-10-05T20:59:30.458Z,2.80
2017-10-05T21:01:58.900Z,3.00
2017-10-05T21:04:27.226Z,3.07
2017-10-05T21:06:55.478Z,4.63
2017-10-05T21:09:23.753Z,2.97
2017-10-05T21:11:51.999Z,3.23
2017-10-05T21:14:20.250Z,2.60
2017-10-05T21:16:48.568Z,2.40
2017-10-05T21:19:19.025Z,2.70
2017-10-05T21:21:47.288Z,2.30
2017-10-05T21:24:15.614Z,3.20
2017-10-05T21:26:44.011Z,2.87
2017-10-05T21:29:14.403Z,3.07
2017-10-05T21:31:42.690Z,3.00
2017-10-05T21:34:10.922Z,3.10
2017-10-05T21:36:39.162Z,3.30
2017-10-05T21:39:07.438Z,7.90
2017-10-05T21:41:35.858Z,2.67
2017-10-05T21:44:04.079Z,3.17
2017-10-05T21:46:33.427Z,3.80
2017-10-05T21:49:01.680Z,4.83
2017-10-05T21:51:29.923Z,3.47
2017-10-05T21:53:58.201Z,3.90
2017-10-05T21:56:26.442Z,3.30
2017-10-05T21:58:54.681Z,2.93
2017-10-05T22:01:22.969Z,3.23
2017-10-05T22:03:51.209Z,2.47
2017-10-05T22:06:19.455Z,3.97
2017-10-05T22:08:48.216Z,3.07
2017-10-05T22:11:16.454Z,2.53
2017-10-05T22:13:44.702Z,2.73
2017-10-05T22:16:13.007Z,2.90
2017-10-05T22:18:42.014Z,4.00
2017-10-05T22:21:10.271Z,3.27
2017-10-05T22:23:38.562Z,5.30
2017-10-05T22:26:06.802Z,2.97
2017-10-05T22:28:35.066Z,2.60
2017-10-05T22:31:03.642Z,3.53
2017-10-05T22:33:31.890Z,2.73
2017-10-05T22:36:00.144Z,3.87
2017-10-05T22:38:29.175Z,3.10
2017-10-05T22:40:57.427Z,4.10
2017-10-05T22:43:25.670Z,2.77
2017-10-05T22:45:53.948Z,3.60
2017-10-05T22:48:22.184Z,4.10
2017-10-05T22:50:50.430Z,4.37
2017-10-05T22:53:18.894Z,3.70
2017-10-05T22:55:47.135Z,3.00
2017-10-05T22:58:15.382Z,3.30
2017-10-05T23:00:43.650Z,5.40
2017-10-05T23:03:11.903Z,6.57
2017-10-05T23:05:40.914Z,3.20
2017-10-05T23:08:09.939Z,3.63
2017-10-05T23:10:38.194Z,3.87
2017-10-05T23:13:06.451Z,3.67
2017-10-05T23:15:35.082Z,4.37
2017-10-05T23:18:05.536Z,3.27
2017-10-05T23:20:33.787Z,3.40
2017-10-05T23:23:02.056Z,3.03
2017-10-05T23:25:30.302Z,3.07
2017-10-05T23:27:58.546Z,3.40
2017-10-05T23:30:26.934Z,4.10
2017-10-05T23:32:55.946Z,3.13
2017-10-05T23:35:24.186Z,2.70
2017-10-05T23:37:52.757Z,3.50
2017-10-05T23:40:21.002Z,3.43
2017-10-05T23:42:49.250Z,4.70
2017-10-05T23:45:18.286Z,2.90
2017-10-05T23:47:46.538Z,3.23
2017-10-05T23:50:14.786Z,3.50
2017-10-05T23:52:43.830Z,4.90
2017-10-05T23:55:12.082Z,4.13
2017-10-05T23:57:40.341Z,3.80
